ADDS METAR Data INFO
IDs: Format: Raw Decoded Include TAF

Data at: 0115 UTC 21 Oct 2017

KELY 210053Z AUTO 36008KT 10SM CLR 05/M12 A2996 RMK AO2 SLP101 T00501117
KELY 202353Z AUTO 31015G20KT 10SM CLR 08/M13 A2993 RMK AO2 SLP085 T00781133 10111 20067 53015
KELY 202253Z AUTO 30018G27KT 10SM CLR 09/M15 A2991 RMK AO2 PK WND 30027/2208 SLP076 T00891150
KELY 202153Z AUTO 31016G23KT 10SM CLR 10/M16 A2989 RMK AO2 PK WND 32031/2138 SLP072 T01001161
KELY 202053Z AUTO 28012G28KT 10SM CLR 10/M16 A2988 RMK AO2 PK WND 29035/1959 SLP063 T01001161 51001
KELY 201953Z AUTO 30020G29KT 10SM CLR 11/M15 A2987 RMK AO2 PK WND 29032/1943 SLP060 T01061150
KELY 201853Z AUTO 29017G25KT 10SM SCT055 SCT095 08/M09 A2989 RMK AO2 PK WND 29027/1754 SLP065 T00831089
KELY 201753Z AUTO 29019G30KT 10SM BKN090 OVC100 07/M04 A2987 RMK AO2 PK WND 29032/1710 SLP064 T00671044 10128 20067 53034
KELY 201653Z AUTO 28024G32KT 10SM FEW026 OVC095 08/M01 A2982 RMK AO2 PK WND 28032/1649 WSHFT 1601 SLP046 T00831011
KELY 201621Z AUTO 29018G29KT 9SM FEW025 BKN100 10/M01 A2980 RMK AO2 PK WND 29029/1613 WSHFT 1601 T01001011
KELY 201553Z AUTO 20007KT 10SM OVC100 12/M07 A2978 RMK AO2 SLP027 T01171072
KELY 201453Z AUTO 17012G20KT 10SM CLR 10/M07 A2975 RMK AO2 SLP016 T01001072 53013
KELY 201353Z AUTO 17012G20KT 10SM CLR 09/M07 A2972 RMK AO2 SLP006 T00941067
KELY 201253Z AUTO 19016G24KT 10SM CLR 10/M06 A2970 RMK AO2 PK WND 14027/1220 WSHFT 1151 SLP986 T01001061
KELY 201211Z AUTO 18014G22KT 10SM CLR 12/M07 A2969 RMK AO2 WSHFT 1151 T01171067
KELY 201153Z AUTO 21010KT 10SM CLR 09/M06 A2970 RMK AO2 PK WND 19030/1116 SLP975 T00941061 10122 20072 55025
KELY 201053Z AUTO 17017G30KT 10SM CLR 10/M06 A2970 RMK AO2 PK WND 17030/1046 SLP970 T01001061
KELY 200953Z AUTO 18011KT 10SM CLR 08/M06 A2976 RMK AO2 SLP998 T00781056
KELY 200853Z AUTO 18014KT 10SM CLR 09/M06 A2979 RMK AO2 SLP003 T00891056 56015
KELY 200753Z AUTO 20013KT 10SM CLR 09/M04 A2982 RMK AO2 WSHFT 0725 SLP014 T00891044 402170011
KELY 200745Z AUTO 21013KT 10SM CLR 09/M04 A2982 RMK AO2 WSHFT 0725 T00891044
KELY 200653Z AUTO 16018KT 10SM CLR 11/M04 A2981 RMK AO2 SLP008 T01111039
KELY 200553Z AUTO 18008KT 10SM CLR 11/M04 A2985 RMK AO2 SLP025 T01061039 10194 20078 58012
KELY 200453Z AUTO 18010KT 10SM CLR 09/M04 A2987 RMK AO2 SLP042 T00941039
KELY 200353Z AUTO 19010KT 10SM CLR 08/M04 A2987 RMK AO2 SLP062 T00781044
KELY 200253Z AUTO 19010KT 10SM CLR 09/M04 A2989 RMK AO2 SLP086 T00941044 57007
KELY 200153Z AUTO 17010KT 10SM CLR 10/M05 A2990 RMK AO2 SLP090 T01001050
KELY 200053Z AUTO 17008KT 10SM CLR 14/M06 A2990 RMK AO2 SLP076 T01441061
KELY 192353Z AUTO 19010G18KT 10SM CLR 20/M06 A2991 RMK AO2 SLP069 T02001061 10217 20183 58010
KELY 192253Z AUTO 20012KT 10SM CLR 21/M06 A2993 RMK AO2 SLP072 T02061061
KELY 192153Z AUTO 23013G21KT 10SM CLR 21/M07 A2994 RMK AO2 SLP071 T02111067
KELY 192053Z AUTO 22013G18KT 10SM CLR 22/M08 A2995 RMK AO2 SLP076 T02171078 58025
KELY 191953Z AUTO 21013G18KT 10SM CLR 22/M08 A2998 RMK AO2 SLP086 T02171083
KELY 191853Z AUTO 10SM CLR 21/M08 A3001 RMK AO2 SLP098 T02061078
KELY 191753Z AUTO 16006KT 10SM CLR 19/M11 A3004 RMK AO2 SLP107 T01891106 10189 20011 58012
KELY 191653Z AUTO 18011KT 10SM CLR 17/M12 A3006 RMK AO2 SLP116 T01671117
KELY 191553Z AUTO 14006KT 10SM CLR 11/M12 A3008 RMK AO2 SLP139 T01061122
KELY 191453Z AUTO 16008KT 10SM CLR 02/M13 A3008 RMK AO2 SLP151 T00221133 53001
KELY 191353Z AUTO 19006KT 10SM CLR 02/M14 A3008 RMK AO2 SLP145 T00171139